Time;durP1;ratioP1;P1;durP2;ratioP2;P2;SDS_P1;SDS_P2;PMS_P1;PMS_P2;Temp;Humidity;BMP_temperature;BMP_pressure;BME280_temperature;BME280_humidity;BME280_pressure;Samples;Min_cycle;Max_cycle;Signal;HPM_P1;HPM_P2
2022/01/25 00:28:41;;;;;;;131.18;44.00;;;;;;;-7.95;nan;102527.38;4965899;28;20489;-66
2022/01/25 00:31:12;;;;;;;122.75;42.15;;;;;;;-7.95;nan;102536.75;4967952;28;20409;-67
2022/01/25 00:33:39;;;;;;;125.05;42.97;;;;;;;-8.00;nan;102538.63;4954245;29;20046;-66
2022/01/25 00:36:17;;;;;;;122.10;40.97;;;;;;;-8.11;nan;102520.28;4959691;28;20096;-66
2022/01/25 00:38:44;;;;;;;124.60;43.63;;;;;;;-8.14;nan;102524.59;4973553;28;20038;-66
2022/01/25 00:41:10;;;;;;;126.65;42.00;;;;;;;-8.09;nan;102529.56;4960958;28;20042;-67
2022/01/25 00:43:36;;;;;;;122.63;42.28;;;;;;;-8.11;nan;102533.88;5014492;28;20037;-66
2022/01/25 00:46:06;;;;;;;120.60;40.67;;;;;;;-8.13;nan;102533.94;5016840;28;20040;-67
2022/01/25 00:54:09;;;;;;;110.85;39.63;;;;;;;-8.27;nan;102533.53;5032717;28;20037;-67
2022/01/25 00:56:38;;;;;;;114.50;39.25;;;;;;;-8.40;nan;102520.38;5033391;28;20132;-67
2022/01/25 00:59:08;;;;;;;79.70;29.33;;;;;;;-8.36;nan;102529.56;5034692;28;20109;-67
2022/01/25 01:01:35;;;;;;;117.50;37.47;;;;;;;-8.35;nan;102538.09;5010783;28;20057;-67
2022/01/25 01:04:01;;;;;;;109.55;36.65;;;;;;;-8.40;nan;102535.72;5036105;28;20449;-66
2022/01/25 01:06:26;;;;;;;109.32;37.35;;;;;;;-8.43;nan;102533.22;5032891;28;20040;-67
2022/01/25 01:08:52;;;;;;;108.28;37.20;;;;;;;-8.44;nan;102531.56;5033467;28;20041;-66
2022/01/25 01:11:27;;;;;;;109.35;36.67;;;;;;;-8.45;nan;102529.06;5024825;28;20087;-66
2022/01/25 01:16:45;;;;;;;112.72;40.53;;;;;;;-8.50;nan;102529.19;5038022;28;20115;-66
2022/01/25 01:30:41;;;;;;;119.85;38.85;;;;;;;-8.66;nan;102511.00;5034053;28;20112;-66
2022/01/25 01:43:53;;;;;;;112.20;36.67;;;;;;;-8.72;nan;102516.28;5017838;28;20037;-67
2022/01/25 01:51:20;;;;;;;99.60;35.10;;;;;;;-8.91;nan;102490.47;5033344;28;20116;-66
2022/01/25 01:53:46;;;;;;;94.93;32.70;;;;;;;-8.93;nan;102499.94;5032335;28;20112;-66
2022/01/25 01:56:12;;;;;;;89.35;31.90;;;;;;;-9.02;nan;102492.53;5031540;28;20133;-68
2022/01/25 01:58:38;;;;;;;87.28;31.45;;;;;;;-9.06;nan;102494.34;5014573;28;20034;-66
2022/01/25 02:01:07;;;;;;;100.65;33.00;;;;;;;-9.08;nan;102485.06;5014726;28;20041;-65
2022/01/25 02:03:32;;;;;;;92.88;32.88;;;;;;;-9.02;nan;102495.94;5034813;28;20036;-68
2022/01/25 02:05:58;;;;;;;87.38;31.50;;;;;;;-9.04;nan;102497.69;5014283;28;20441;-68
2022/01/25 02:08:23;;;;;;;91.93;30.88;;;;;;;-9.09;nan;102488.50;5013039;28;20120;-68
2022/01/25 02:10:49;;;;;;;95.43;31.08;;;;;;;-9.10;nan;102482.53;5032972;28;20030;-68
2022/01/25 02:13:14;;;;;;;90.93;29.98;;;;;;;-9.18;nan;102481.13;5032889;28;20076;-67
2022/01/25 02:15:44;;;;;;;90.43;30.65;;;;;;;-9.21;nan;102480.31;5031540;28;20052;-68
2022/01/25 02:23:44;;;;;;;85.85;29.73;;;;;;;-9.29;nan;102473.78;4990935;28;20034;-68
2022/01/25 02:26:11;;;;;;;87.03;31.13;;;;;;;-9.32;nan;102474.69;4984745;28;20505;-68
2022/01/25 02:28:41;;;;;;;80.70;29.38;;;;;;;-9.37;nan;102475.72;4989941;28;20062;-68
2022/01/25 02:31:09;;;;;;;91.32;29.55;;;;;;;-9.30;nan;102485.69;4988269;28;20042;-68
2022/01/25 02:33:35;;;;;;;85.65;28.48;;;;;;;-9.38;nan;102476.59;4985742;28;20052;-67
2022/01/25 02:36:05;;;;;;;79.63;27.48;;;;;;;-9.38;nan;102482.56;4990300;28;20404;-68
2022/01/25 02:38:31;;;;;;;81.53;29.63;;;;;;;-9.42;nan;102471.59;4991101;28;20093;-70
2022/01/25 02:40:58;;;;;;;89.88;29.95;;;;;;;-9.44;nan;102473.34;4985586;28;20043;-67
2022/01/25 02:43:25;;;;;;;82.90;28.67;;;;;;;-9.48;nan;102476.88;4975604;28;20034;-68
2022/01/25 02:48:54;;;;;;;83.22;28.30;;;;;;;-9.65;nan;102479.91;4981957;28;20493;-68
2022/01/25 02:51:41;;;;;;;81.97;28.02;;;;;;;-9.71;nan;102480.06;4986019;28;20531;-68
2022/01/25 02:54:08;;;;;;;79.90;27.20;;;;;;;-9.82;nan;102473.59;4974369;28;20488;-68
2022/01/25 02:56:36;;;;;;;80.72;25.73;;;;;;;-9.83;nan;102477.84;4965487;28;20111;-68
2022/01/25 02:59:06;;;;;;;82.88;27.75;;;;;;;-9.88;nan;102479.69;5001266;28;20042;-67
2022/01/25 03:01:32;;;;;;;77.10;27.45;;;;;;;-9.97;nan;102465.47;5010537;28;20030;-68
2022/01/25 03:03:58;;;;;;;77.90;27.05;;;;;;;-10.02;nan;102464.78;5030641;28;20029;-65
2022/01/25 03:06:24;;;;;;;69.85;25.90;;;;;;;-10.09;nan;102465.81;5020187;28;20040;-66
2022/01/25 03:08:50;;;;;;;77.60;26.85;;;;;;;-10.01;nan;102478.34;5018448;28;20056;-66
2022/01/25 03:11:18;;;;;;;72.43;24.67;;;;;;;-9.98;nan;102480.81;5013422;28;20092;-67
2022/01/25 03:13:51;;;;;;;74.60;24.92;;;;;;;-10.09;nan;102463.25;5007867;28;20022;-66
2022/01/25 03:16:22;;;;;;;78.20;25.15;;;;;;;-10.02;nan;102467.31;5014760;28;20037;-67
2022/01/25 03:18:49;;;;;;;71.35;24.63;;;;;;;-10.07;nan;102458.97;5019425;28;20041;-67
2022/01/25 03:23:41;;;;;;;77.47;24.77;;;;;;;-10.21;nan;102436.41;5011843;28;20037;-67
2022/01/25 03:26:06;;;;;;;76.78;25.15;;;;;;;-10.22;nan;102452.56;5010969;28;20034;-66
2022/01/25 03:28:31;;;;;;;80.47;26.15;;;;;;;-10.20;nan;102462.69;5011422;28;20487;-66
2022/01/25 03:30:57;;;;;;;74.55;24.35;;;;;;;-10.30;nan;102451.94;4993886;28;20043;-65
2022/01/25 03:33:22;;;;;;;76.80;26.27;;;;;;;-10.28;nan;102461.19;5011268;28;20058;-67
2022/01/25 03:35:48;;;;;;;67.20;23.58;;;;;;;-10.30;nan;102450.22;4999628;28;20506;-66
2022/01/25 03:38:13;;;;;;;70.05;22.73;;;;;;;-10.36;nan;102436.84;5011342;28;20030;-68
2022/01/25 03:40:39;;;;;;;66.38;22.45;;;;;;;-10.33;nan;102442.69;5011181;28;20034;-68
2022/01/25 03:43:06;;;;;;;67.25;23.42;;;;;;;-10.37;nan;102433.44;5014184;28;20495;-66
2022/01/25 03:45:34;;;;;;;69.80;23.50;;;;;;;-10.31;nan;102443.47;5014396;28;20453;-67
2022/01/25 03:49:48;;;;;;;68.03;24.33;;;;;;;-10.35;nan;102433.41;5016136;28;20080;-67
2022/01/25 03:50:49;;;;;;;64.47;22.17;;;;;;;-10.30;nan;102440.03;5015663;28;20403;-67
2022/01/25 03:53:16;;;;;;;63.13;22.50;;;;;;;-10.29;nan;102436.63;5014224;28;20017;-66
2022/01/25 03:55:42;;;;;;;63.70;22.08;;;;;;;-10.25;nan;102441.59;5020708;28;20044;-65
2022/01/25 03:58:08;;;;;;;61.28;21.95;;;;;;;-10.24;nan;102439.03;5033278;28;20029;-66
2022/01/25 04:00:35;;;;;;;67.93;22.77;;;;;;;-10.20;nan;102447.41;5013678;28;20041;-65
2022/01/25 04:03:05;;;;;;;71.80;22.58;;;;;;;-10.22;nan;102441.53;5042286;28;20032;-66
2022/01/25 04:05:48;;;;;;;68.68;22.48;;;;;;;-10.28;nan;102434.91;5036250;28;20037;-69
2022/01/25 04:08:14;;;;;;;64.18;20.25;;;;;;;-10.32;nan;102439.28;5034589;28;20112;-68
2022/01/25 04:10:40;;;;;;;58.47;20.40;;;;;;;-10.45;nan;102426.88;5034194;28;20029;-69
2022/01/25 04:13:07;;;;;;;63.95;20.58;;;;;;;-10.54;nan;102416.03;5034163;28;20040;-68
2022/01/25 04:15:33;;;;;;;61.22;20.55;;;;;;;-10.42;nan;102439.53;5017531;28;20113;-69
2022/01/25 04:18:18;;;;;;;58.70;20.25;;;;;;;-10.47;nan;102429.47;5043163;28;20037;-68
2022/01/25 04:20:55;;;;;;;72.15;22.25;;;;;;;-10.41;nan;102436.97;5034348;28;20120;-69
2022/01/25 04:26:05;;;;;;;60.10;21.52;;;;;;;-10.42;nan;102439.53;5035125;28;20030;-68
2022/01/25 04:28:30;;;;;;;67.72;21.90;;;;;;;-10.45;nan;102434.53;5033783;28;20033;-67
2022/01/25 04:30:55;;;;;;;64.25;21.15;;;;;;;-10.46;nan;102427.75;5015692;28;20056;-68
2022/01/25 04:33:25;;;;;;;65.43;20.48;;;;;;;-10.49;nan;102431.22;5034600;28;20483;-68
2022/01/25 04:49:32;;;;;;;63.60;21.60;;;;;;;-10.70;nan;102435.16;5034060;28;20025;-66
2022/01/25 04:52:11;;;;;;;67.95;21.70;;;;;;;-10.82;nan;102420.16;5033890;28;20068;-66
2022/01/25 05:00:03;;;;;;;63.30;21.55;;;;;;;-10.85;nan;102435.50;5032317;28;20037;-65
2022/01/25 05:05:03;;;;;;;68.13;23.45;;;;;;;-10.95;nan;102434.88;5044892;28;20048;-68
2022/01/25 05:10:12;;;;;;;71.32;22.45;;;;;;;-10.95;nan;102435.72;5029777;28;20118;-67
2022/01/25 05:12:53;;;;;;;61.97;22.30;;;;;;;-10.88;nan;102445.75;5033130;28;20033;-68
2022/01/25 05:15:38;;;;;;;66.97;22.33;;;;;;;-10.84;nan;102447.38;5031452;28;20498;-67
2022/01/25 05:23:13;;;;;;;80.75;24.35;;;;;;;-10.95;nan;102439.97;5031456;28;20045;-77
2022/01/25 05:25:39;;;;;;;81.43;25.40;;;;;;;-10.93;nan;102441.59;5015824;28;20034;-77
2022/01/25 05:28:04;;;;;;;76.63;23.42;;;;;;;-10.93;nan;102439.06;5000797;28;20034;-78
2022/01/25 05:30:30;;;;;;;71.05;23.65;;;;;;;-10.98;nan;102434.97;4999412;28;20497;-78
2022/01/25 05:32:55;;;;;;;76.00;23.98;;;;;;;-10.93;nan;102444.16;5033092;28;20037;-78
2022/01/25 05:35:20;;;;;;;85.70;26.20;;;;;;;-10.87;nan;102449.97;5033594;28;20033;-77
2022/01/25 05:37:46;;;;;;;73.88;23.20;;;;;;;-10.94;nan;102423.81;5033914;28;20037;-77
2022/01/25 05:40:17;;;;;;;70.50;23.73;;;;;;;-10.84;nan;102439.72;5015830;28;20112;-77
2022/01/25 05:45:25;;;;;;;78.88;24.73;;;;;;;-10.84;nan;102434.66;5032518;28;20495;-77
2022/01/25 05:47:50;;;;;;;69.55;23.48;;;;;;;-10.98;nan;102397.63;5033773;28;20079;-77
2022/01/25 05:50:16;;;;;;;83.18;24.13;;;;;;;-10.87;nan;102407.53;5033607;28;20277;-77
2022/01/25 05:52:42;;;;;;;91.47;26.00;;;;;;;-10.80;nan;102423.50;5015317;28;20087;-77
2022/01/25 05:55:08;;;;;;;75.75;24.85;;;;;;;-10.96;nan;102397.59;5015956;28;20221;-76
2022/01/25 05:57:34;;;;;;;77.65;25.90;;;;;;;-10.95;nan;102397.53;5034027;28;20095;-77
2022/01/25 06:00:00;;;;;;;74.00;23.85;;;;;;;-10.85;nan;102418.50;5032703;28;20029;-73
2022/01/25 06:02:29;;;;;;;78.35;25.70;;;;;;;-10.82;nan;102408.28;5015223;28;20120;-73
2022/01/25 06:04:54;;;;;;;91.60;26.17;;;;;;;-10.73;nan;102400.41;5015336;28;20037;-72
2022/01/25 06:07:20;;;;;;;96.28;26.98;;;;;;;-10.76;nan;102369.94;5033346;28;20029;-74
2022/01/25 06:09:48;;;;;;;87.95;28.38;;;;;;;-10.53;nan;102396.53;5013979;28;20041;-71
2022/01/25 06:12:13;;;;;;;94.53;27.92;;;;;;;-10.69;nan;102344.34;5033348;28;20025;-73
2022/01/25 06:14:39;;;;;;;86.07;25.27;;;;;;;-10.31;nan;102394.25;5011402;28;20029;-73
2022/01/25 06:17:05;;;;;;;88.25;29.20;;;;;;;-10.38;nan;102377.47;5028070;28;20032;-74
2022/01/25 06:19:30;;;;;;;94.72;28.45;;;;;;;-10.21;nan;102403.28;5043725;28;20376;-74
2022/01/25 06:21:56;;;;;;;89.13;28.60;;;;;;;-10.29;nan;102387.41;5024554;28;20045;-73
2022/01/25 06:24:21;;;;;;;90.22;28.98;;;;;;;-10.32;nan;102384.94;5024532;28;20484;-72
2022/01/25 06:26:47;;;;;;;82.97;26.85;;;;;;;-10.20;nan;102406.66;5039786;28;20048;-72
2022/01/25 06:29:16;;;;;;;85.03;26.00;;;;;;;-10.36;nan;102374.00;5024130;28;20091;-73
2022/01/25 06:31:41;;;;;;;;;;;;;;;-10.23;nan;102409.28;5023600;28;20052;-71
2022/01/25 06:34:06;;;;;;;81.27;24.20;;;;;;;-10.30;nan;102391.66;5014647;28;19960;-72
2022/01/25 06:36:32;;;;;;;73.05;24.92;;;;;;;-10.31;nan;102382.34;5013733;28;20337;-72
2022/01/25 06:38:59;;;;;;;67.40;23.08;;;;;;;-10.20;nan;102396.47;5010143;28;20033;-73
2022/01/25 06:41:24;;;;;;;77.65;25.42;;;;;;;-10.19;nan;102406.63;5029498;28;20021;-74
2022/01/25 06:43:50;;;;;;;76.55;24.65;;;;;;;-10.29;nan;102398.44;5013986;28;20565;-75
2022/01/25 06:46:15;;;;;;;72.55;22.08;;;;;;;-10.30;nan;102388.28;5014684;28;20479;-73
2022/01/25 06:48:41;;;;;;;67.70;23.00;;;;;;;-10.17;nan;102401.50;5031747;28;20116;-74
2022/01/25 06:51:06;;;;;;;71.15;22.77;;;;;;;-10.21;nan;102393.09;5031534;28;20394;-73
2022/01/25 06:53:32;;;;;;;71.22;23.05;;;;;;;-10.21;nan;102382.91;5031872;28;20056;-72
2022/01/25 06:55:57;;;;;;;75.95;23.80;;;;;;;-10.13;nan;102385.22;5010848;28;20411;-72
2022/01/25 06:58:23;;;;;;;72.60;23.50;;;;;;;-10.08;nan;102385.94;5007721;28;20033;-74
2022/01/25 07:00:48;;;;;;;73.47;23.88;;;;;;;-10.14;nan;102374.22;4991489;28;20065;-74
2022/01/25 07:03:14;;;;;;;77.88;24.02;;;;;;;-10.16;nan;102375.97;5017086;28;20398;-72
2022/01/25 07:05:39;;;;;;;73.93;24.20;;;;;;;-10.06;nan;102386.75;5010162;28;20045;-70
2022/01/25 07:08:05;;;;;;;75.07;24.15;;;;;;;-10.16;nan;102360.69;5009654;28;20034;-71
2022/01/25 07:10:31;;;;;;;83.10;25.67;;;;;;;-10.06;nan;102387.56;4997938;28;20073;-70
2022/01/25 07:12:56;;;;;;;85.25;26.48;;;;;;;-10.19;nan;102365.88;4998515;28;20034;-71
2022/01/25 07:15:22;;;;;;;83.38;26.05;;;;;;;-10.26;nan;102364.38;5011691;28;20112;-71
2022/01/25 07:17:47;;;;;;;79.13;25.45;;;;;;;-10.17;nan;102383.66;5014866;28;20041;-71
2022/01/25 07:20:13;;;;;;;86.82;28.05;;;;;;;-10.27;nan;102371.19;5011148;28;20037;-70
2022/01/25 07:22:40;;;;;;;84.18;26.48;;;;;;;-10.22;nan;102381.25;5007282;28;20117;-71
2022/01/25 07:25:10;;;;;;;88.60;27.60;;;;;;;-10.20;nan;102386.28;5016734;28;20048;-70
2022/01/25 07:27:35;;;;;;;87.20;29.35;;;;;;;-10.33;nan;102370.53;5017812;28;20480;-73
2022/01/25 07:30:02;;;;;;;94.97;30.20;;;;;;;-10.18;nan;102392.16;5008094;28;20096;-73
2022/01/25 07:32:27;;;;;;;87.07;28.67;;;;;;;-10.22;nan;102385.47;5018466;28;20034;-73
2022/01/25 07:34:52;;;;;;;90.57;28.60;;;;;;;-10.22;nan;102383.78;5018885;28;20472;-74
2022/01/25 07:37:18;;;;;;;88.07;30.65;;;;;;;-10.24;nan;102372.81;5018476;28;20120;-72
2022/01/25 07:39:44;;;;;;;93.85;30.13;;;;;;;-10.14;nan;102383.56;5018006;28;20107;-71
2022/01/25 07:42:10;;;;;;;84.13;28.83;;;;;;;-10.14;nan;102383.56;5018400;28;20037;-71
2022/01/25 07:44:38;;;;;;;90.20;28.38;;;;;;;-10.10;nan;102386.00;5018757;28;20052;-70
2022/01/25 07:47:04;;;;;;;93.57;30.23;;;;;;;-10.11;nan;102378.38;5018376;28;20041;-71
2022/01/25 07:49:30;;;;;;;90.07;30.75;;;;;;;-10.03;nan;102384.13;5016853;28;20044;-70
2022/01/25 07:51:56;;;;;;;97.00;31.48;;;;;;;-9.94;nan;102388.94;5018358;28;20034;-70
2022/01/25 07:54:22;;;;;;;106.10;32.42;;;;;;;-9.90;nan;102384.59;5019658;28;20064;-72
2022/01/25 07:56:48;;;;;;;94.57;32.15;;;;;;;;;;5033321;28;20038;-72
2022/01/25 07:59:13;;;;;;;108.38;33.78;;;;;;;;;;5032039;28;20514;-75
2022/01/25 08:01:39;;;;;;;98.22;33.55;;;;;;;;;;5017126;28;20029;-74
2022/01/25 08:04:04;;;;;;;98.20;31.98;;;;;;;;;;5037796;28;20502;-73
2022/01/25 08:06:29;;;;;;;104.95;33.97;;;;;;;;;;5013339;28;20069;-73
2022/01/25 08:08:55;;;;;;;103.97;33.55;;;;;;;;;;5037367;28;20041;-73
2022/01/25 08:11:20;;;;;;;112.10;34.15;;;;;;;;;;5019045;28;20041;-73
2022/01/25 08:13:49;;;;;;;101.65;33.20;;;;;;;;;;5014594;28;20034;-73
2022/01/25 08:16:15;;;;;;;;;;;;;;;;;;5019707;28;20029;-74
2022/01/25 08:18:40;;;;;;;96.80;31.15;;;;;;;-9.28;nan;102397.19;5025496;28;19920;-73
2022/01/25 08:21:05;;;;;;;104.70;35.67;;;;;;;-9.31;nan;102383.69;5010803;28;20136;-71
2022/01/25 08:23:32;;;;;;;101.60;34.72;;;;;;;-9.10;nan;102400.06;5019267;28;20104;-73
2022/01/25 08:25:57;;;;;;;106.45;35.83;;;;;;;-9.25;nan;102384.34;5037166;28;20380;-72
2022/01/25 08:28:23;;;;;;;110.03;35.50;;;;;;;-9.11;nan;102389.03;5017861;28;20036;-73
2022/01/25 08:30:48;;;;;;;106.50;36.03;;;;;;;-8.97;nan;102388.59;5013020;28;20037;-73
2022/01/25 08:33:14;;;;;;;113.47;37.22;;;;;;;-8.86;nan;102391.63;5026983;28;20029;-73
2022/01/25 08:35:40;;;;;;;111.13;37.05;;;;;;;-8.83;nan;102383.03;5015695;28;20037;-73
2022/01/25 08:38:05;;;;;;;111.82;35.00;;;;;;;-8.69;nan;102388.53;5016476;28;20108;-72
2022/01/25 08:40:33;;;;;;;111.32;37.97;;;;;;;-8.71;nan;102366.44;5034284;28;20034;-72
2022/01/25 08:42:59;;;;;;;114.38;37.40;;;;;;;-8.60;nan;102383.06;5034121;28;20554;-73
2022/01/25 08:45:25;;;;;;;109.50;37.22;;;;;;;-8.50;nan;102375.94;5034390;28;20080;-73
2022/01/25 08:47:51;;;;;;;109.95;39.00;;;;;;;-8.36;nan;102386.47;5013327;28;20034;-72
2022/01/25 08:50:16;;;;;;;115.65;37.47;;;;;;;-8.32;nan;102369.34;5014697;28;20072;-72
2022/01/25 08:52:41;;;;;;;111.63;36.85;;;;;;;-8.31;nan;102354.84;5029484;28;20487;-72
2022/01/25 08:55:07;;;;;;;109.00;37.78;;;;;;;-8.07;nan;102374.38;5033748;28;20053;-72
2022/01/25 08:57:33;;;;;;;110.38;36.78;;;;;;;-7.92;nan;102378.13;5014616;28;20041;-72
2022/01/25 08:59:59;;;;;;;109.38;37.38;;;;;;;-7.54;nan;102420.19;5022872;28;20491;-73
2022/01/25 09:02:24;;;;;;;112.57;37.28;;;;;;;-7.74;nan;102374.88;5036172;28;20057;-73
2022/01/25 09:04:50;;;;;;;116.55;39.17;;;;;;;-7.83;nan;102352.19;5043673;28;20091;-73
2022/01/25 09:07:15;;;;;;;118.80;40.25;;;;;;;-7.75;nan;102368.09;5015721;28;20040;-72
2022/01/25 09:09:42;;;;;;;113.60;37.35;;;;;;;-7.75;nan;102374.94;5033655;28;20036;-73
2022/01/25 09:12:08;;;;;;;111.15;39.85;;;;;;;-7.67;nan;102364.44;5011969;28;20049;-73
2022/01/25 09:14:33;;;;;;;118.22;40.78;;;;;;;-7.52;nan;102366.38;5025442;28;20185;-72
2022/01/25 09:16:59;;;;;;;107.88;38.45;;;;;;;-7.49;nan;102349.19;5025703;28;20568;-73
2022/01/25 09:19:25;;;;;;;107.30;39.33;;;;;;;-7.29;nan;102362.94;5053670;28;20558;-73
2022/01/25 09:21:50;;;;;;;127.10;40.33;;;;;;;-7.20;nan;102349.78;5031892;28;20033;-72
2022/01/25 09:24:16;;;;;;;120.72;39.40;;;;;;;-7.04;nan;102354.28;5033238;28;20376;-73
2022/01/25 09:26:41;;;;;;;121.45;40.88;;;;;;;-6.94;nan;102353.00;5033810;28;20033;-72
2022/01/25 09:29:07;;;;;;;119.07;40.53;;;;;;;-7.09;nan;102316.91;5033863;28;20063;-73
2022/01/25 09:31:32;;;;;;;111.03;39.45;;;;;;;-6.80;nan;102350.69;5034099;28;20541;-73
2022/01/25 09:33:58;;;;;;;120.18;42.40;;;;;;;-6.96;nan;102301.03;5009912;28;20034;-73
2022/01/25 09:36:24;;;;;;;123.47;42.05;;;;;;;-6.56;nan;102332.63;5033615;28;20040;-73
2022/01/25 09:38:54;;;;;;;112.15;41.38;;;;;;;-6.46;nan;102328.78;5012154;28;20038;-75
2022/01/25 09:41:19;;;;;;;;;;;;;;;-6.29;nan;102336.56;5032883;28;20383;-73
2022/01/25 09:43:45;;;;;;;114.93;38.83;;;;;;;-6.26;nan;102321.03;5033670;28;19913;-75
2022/01/25 09:46:10;;;;;;;136.93;43.85;;;;;;;-6.13;nan;102326.47;5022767;28;20069;-74
2022/01/25 09:48:36;;;;;;;116.25;41.35;;;;;;;-6.07;nan;102322.78;5040998;28;20052;-72
2022/01/25 09:51:03;;;;;;;113.03;42.50;;;;;;;-5.97;nan;102318.88;5038993;28;20041;-72
2022/01/25 09:53:29;;;;;;;115.22;41.00;;;;;;;-6.00;nan;102307.03;5020412;28;20037;-72
2022/01/25 09:55:56;;;;;;;124.35;44.10;;;;;;;-5.93;nan;102289.59;5035032;28;20049;-72
2022/01/25 09:58:21;;;;;;;123.05;42.28;;;;;;;-5.80;nan;102287.28;5015549;28;20045;-73
2022/01/25 10:00:48;;;;;;;117.00;42.75;;;;;;;-5.56;nan;102298.13;5029602;28;20037;-73
2022/01/25 10:03:30;;;;;;;111.07;42.10;;;;;;;-5.55;nan;102279.28;5022307;28;20029;-74
2022/01/25 10:05:59;;;;;;;110.22;39.20;;;;;;;-5.42;nan;102282.06;5036797;28;20124;-74
2022/01/25 10:08:36;;;;;;;115.35;42.92;;;;;;;-5.31;nan;102284.13;5010145;28;20034;-72
2022/01/25 10:11:05;;;;;;;115.70;40.70;;;;;;;-5.24;nan;102275.22;5014487;28;20099;-74
2022/01/25 10:13:34;;;;;;;87.22;32.20;;;;;;;-4.75;nan;102329.28;5027600;28;20438;-73
2022/01/25 10:16:30;;;;;;;118.43;41.53;;;;;;;-5.18;nan;102246.66;5007745;28;20045;-73
2022/01/25 10:19:00;;;;;;;109.47;39.97;;;;;;;-4.78;nan;102294.28;5022562;28;20121;-71
2022/01/25 10:21:34;;;;;;;111.63;39.38;;;;;;;-4.78;nan;102284.00;5013087;28;20041;-73
2022/01/25 10:24:16;;;;;;;116.45;40.03;;;;;;;-4.66;nan;102292.81;5011480;28;20609;-74
2022/01/25 10:26:50;;;;;;;109.03;40.38;;;;;;;-4.62;nan;102293.47;5031970;28;20074;-72
2022/01/25 10:29:21;;;;;;;118.72;41.78;;;;;;;-4.53;nan;102287.88;5028704;28;20041;-73
2022/01/25 10:31:49;;;;;;;102.00;38.92;;;;;;;-4.53;nan;102267.31;5031487;28;20036;-76
2022/01/25 10:34:22;;;;;;;73.00;28.38;;;;;;;-4.56;nan;102249.47;5010817;28;20065;-76
2022/01/25 10:36:49;;;;;;;81.25;28.83;;;;;;;-4.45;nan;102259.19;5027804;28;20043;-76
2022/01/25 10:39:26;;;;;;;81.97;31.13;;;;;;;-4.42;nan;102251.31;5011093;28;20160;-76
2022/01/25 10:41:52;;;;;;;85.00;31.55;;;;;;;-4.28;nan;102264.28;5012994;28;20476;-77
2022/01/25 10:44:17;;;;;;;89.50;34.63;;;;;;;-4.31;nan;102238.69;5032211;28;20052;-76
2022/01/25 10:46:43;;;;;;;80.05;28.95;;;;;;;-4.16;nan;102257.63;5032130;28;20395;-77
2022/01/25 10:49:13;;;;;;;86.50;31.90;;;;;;;-4.13;nan;102245.44;5013300;28;20038;-77
2022/01/25 10:51:39;;;;;;;69.38;26.33;;;;;;;-4.09;nan;102238.38;5031296;28;20104;-76
2022/01/25 10:54:22;;;;;;;68.75;27.85;;;;;;;-4.08;nan;102233.13;5031571;28;20041;-75
2022/01/25 10:56:54;;;;;;;77.70;30.67;;;;;;;-3.99;nan;102223.28;5010744;28;20038;-76
2022/01/25 10:59:32;;;;;;;83.82;31.75;;;;;;;-3.99;nan;102215.56;5016301;28;20056;-79
2022/01/25 11:02:00;;;;;;;79.75;32.78;;;;;;;-3.97;nan;102213.72;5026046;28;20128;-76
2022/01/25 11:04:34;;;;;;;79.87;30.20;;;;;;;-3.81;nan;102231.69;5038336;28;20380;-76
2022/01/25 11:07:05;;;;;;;78.90;30.65;;;;;;;-3.84;nan;102212.09;5010763;28;20120;-75
2022/01/25 11:09:39;;;;;;;86.18;31.90;;;;;;;-3.71;nan;102215.66;5029404;28;20167;-75
2022/01/25 11:12:11;;;;;;;93.30;34.00;;;;;;;-3.63;nan;102235.81;5032574;28;20041;-77
2022/01/25 11:17:24;;;;;;;94.15;34.08;;;;;;;-3.72;nan;102182.28;5032926;28;20041;-74
2022/01/25 11:19:49;;;;;;;81.20;33.08;;;;;;;-3.46;nan;102212.50;5031893;28;20509;-75
2022/01/25 11:22:19;;;;;;;84.03;31.55;;;;;;;-3.38;nan;102212.03;5027684;28;20033;-74
2022/01/25 11:24:49;;;;;;;90.13;32.95;;;;;;;-3.42;nan;102192.56;5031418;28;20026;-72
2022/01/25 11:27:15;;;;;;;85.63;31.55;;;;;;;-3.31;nan;102179.88;5013031;28;20030;-73
2022/01/25 11:29:41;;;;;;;82.93;31.30;;;;;;;;;;5031454;28;20040;-73
2022/01/25 11:32:09;;;;;;;84.00;32.53;;;;;;;;;;5012955;28;20040;-74
2022/01/25 11:34:35;;;;;;;87.18;34.10;;;;;;;;;;5025825;28;20036;-73
2022/01/25 11:37:02;;;;;;;83.82;32.88;;;;;;;;;;5026347;28;20126;-75
2022/01/25 11:39:28;;;;;;;87.13;31.60;;;;;;;;;;5009171;28;20078;-73
2022/01/25 11:42:02;;;;;;;68.85;27.55;;;;;;;;;;5012999;28;20183;-74
2022/01/25 11:44:29;;;;;;;73.47;29.10;;;;;;;;;;5005605;28;20038;-74
2022/01/25 11:46:56;;;;;;;74.47;29.45;;;;;;;;;;4995606;28;20041;-75
2022/01/25 11:49:22;;;;;;;67.55;27.05;;;;;;;-2.87;nan;102160.09;5029839;28;20061;-74
2022/01/25 11:52:12;;;;;;;66.28;28.05;;;;;;;-2.80;nan;102167.34;5032777;28;20029;-74
2022/01/25 11:54:40;;;;;;;77.18;28.13;;;;;;;-2.73;nan;102161.81;5033735;28;20484;-74
2022/01/25 11:57:17;;;;;;;80.35;30.15;;;;;;;-2.74;nan;102150.66;5031399;28;20045;-74
2022/01/25 11:59:51;;;;;;;81.55;29.55;;;;;;;-2.75;nan;102130.97;5001552;28;20029;-74
2022/01/25 12:02:42;;;;;;;68.60;27.00;;;;;;;-2.61;nan;102148.16;5024051;28;20037;-75
2022/01/25 12:05:10;;;;;;;61.60;24.75;;;;;;;-2.66;nan;102142.47;5023255;28;20041;-74
2022/01/25 12:07:43;;;;;;;59.47;23.30;;;;;;;-2.69;nan;102140.06;5015021;28;20041;-74
2022/01/25 12:10:40;;;;;;;61.58;23.52;;;;;;;-2.56;nan;102153.88;5029807;28;20026;-74
2022/01/25 12:13:11;;;;;;;54.85;20.70;;;;;;;-2.54;nan;102144.25;5007921;28;20440;-75
2022/01/25 12:15:37;;;;;;;51.85;20.75;;;;;;;-2.62;nan;102118.16;5016839;28;20033;-74
2022/01/25 12:18:03;;;;;;;56.50;23.08;;;;;;;-2.63;nan;102122.47;5036657;28;20540;-73
2022/01/25 12:20:28;;;;;;;57.00;24.42;;;;;;;-2.55;nan;102129.72;5014677;28;20593;-74
2022/01/25 12:23:17;;;;;;;63.15;24.52;;;;;;;-2.51;nan;102131.19;5012432;28;20476;-73
2022/01/25 12:25:54;;;;;;;39.83;16.42;;;;;;;-2.39;nan;102139.91;5030995;28;20025;-73
2022/01/25 12:28:27;;;;;;;55.20;22.05;;;;;;;-2.37;nan;102133.72;5015957;28;20510;-73
2022/01/25 12:30:53;;;;;;;56.67;23.77;;;;;;;-2.40;nan;102118.44;5032442;28;20124;-74
2022/01/25 12:33:27;;;;;;;57.58;23.35;;;;;;;-2.23;nan;102124.25;5028915;28;20118;-74
2022/01/25 12:35:56;;;;;;;58.13;24.55;;;;;;;-2.22;nan;102123.34;5032002;28;20033;-75
2022/01/25 12:38:25;;;;;;;54.15;22.63;;;;;;;-2.13;nan;102130.50;5034853;28;20037;-73
2022/01/25 12:41:13;;;;;;;53.15;21.52;;;;;;;-2.09;nan;102113.06;5016736;28;20076;-73
2022/01/25 12:44:01;;;;;;;53.20;22.48;;;;;;;-2.08;nan;102122.44;5034330;28;20506;-74
2022/01/25 12:46:30;;;;;;;41.57;16.63;;;;;;;-2.18;nan;102107.56;5028196;28;20045;-74
2022/01/25 12:48:57;;;;;;;57.40;22.97;;;;;;;-2.08;nan;102125.88;5034816;28;20087;-74
2022/01/25 12:51:32;;;;;;;58.15;22.67;;;;;;;-2.17;nan;102103.25;5034409;28;20143;-74
2022/01/25 12:53:59;;;;;;;55.10;22.50;;;;;;;-2.21;nan;102101.78;5015863;28;20045;-73
2022/01/25 12:56:33;;;;;;;54.67;22.08;;;;;;;-2.25;nan;102084.81;5015436;28;20045;-74
2022/01/25 12:59:12;;;;;;;60.03;22.77;;;;;;;-2.15;nan;102103.97;5013769;28;20458;-74
2022/01/25 13:01:40;;;;;;;61.80;22.65;;;;;;;-2.10;nan;102114.81;5033457;28;20091;-75
2022/01/25 13:04:07;;;;;;;43.47;17.60;;;;;;;-2.14;nan;102105.59;5012169;28;20029;-74
2022/01/25 13:06:35;;;;;;;56.72;22.92;;;;;;;-2.59;nan;102035.41;5033049;28;20484;-74
2022/01/25 13:17:19;;;;;;;51.42;21.27;;;;;;;-2.19;nan;102107.66;5034051;28;20057;-74
2022/01/25 13:19:55;;;;;;;55.08;21.02;;;;;;;-2.39;nan;102078.81;5020610;28;20458;-75
2022/01/25 13:22:26;;;;;;;50.72;20.55;;;;;;;-2.41;nan;102077.28;5031886;28;20094;-74
2022/01/25 13:25:33;;;;;;;52.03;21.33;;;;;;;-2.22;nan;102106.13;5015528;28;20061;-74
2022/01/25 13:27:59;;;;;;;55.25;20.67;;;;;;;-2.25;nan;102100.31;5030435;28;20064;-74
2022/01/25 13:30:45;;;;;;;50.22;21.17;;;;;;;-2.31;nan;102092.97;5014409;28;20365;-74
2022/01/25 13:33:12;;;;;;;44.15;19.30;;;;;;;-2.24;nan;102105.38;4999095;28;20076;-74
2022/01/25 13:35:41;;;;;;;52.97;21.67;;;;;;;-2.19;nan;102102.50;5010724;28;20033;-74